Time;durP1;ratioP1;P1;durP2;ratioP2;P2;SDS_P1;SDS_P2;PMS_P1;PMS_P2;Temp;Humidity;BMP_temperature;BMP_pressure;BME280_temperature;BME280_humidity;BME280_pressure;Samples;Min_cycle;Max_cycle;Signal;HPM_P1;HPM_P2
2024/03/20 00:02:30;;;;;;;;;36.67;25.67;;;;;-1.44;90.56;101216.63;111333;256;39457;-53
2024/03/20 00:05:10;;;;;;;;;37.00;26.00;;;;;-1.50;90.72;101216.11;110770;256;677744;-54
2024/03/20 00:07:49;;;;;;;;;34.00;25.00;;;;;-1.52;90.71;101215.88;111455;255;39793;-51
2024/03/20 00:10:39;;;;;;;;;34.67;24.67;;;;;-1.55;90.74;101212.36;111444;242;163914;-52
2024/03/20 00:13:20;;;;;;;;;35.00;26.50;;;;;-1.59;90.75;101215.43;111484;255;39293;-53
2024/03/20 00:16:02;;;;;;;;;32.00;25.00;;;;;-1.61;90.75;101217.66;111404;241;161432;-53
2024/03/20 00:18:47;;;;;;;;;35.00;27.00;;;;;-1.60;90.63;101217.92;111470;255;40994;-53
2024/03/20 00:21:26;;;;;;;;;36.75;26.50;;;;;-1.61;90.73;101215.91;111356;241;162092;-53
2024/03/20 00:24:08;;;;;;;;;34.33;23.33;;;;;-1.66;90.78;101216.89;111515;254;39152;-52
2024/03/20 00:26:51;;;;;;;;;35.25;24.00;;;;;-1.72;90.93;101217.80;111345;241;161592;-52
2024/03/20 00:29:28;;;;;;;;;33.00;24.33;;;;;-1.74;90.91;101205.19;111509;255;39397;-52
2024/03/20 00:32:05;;;;;;;;;33.00;24.00;;;;;-1.71;90.83;101210.55;111430;255;39802;-52
2024/03/20 00:34:42;;;;;;;;;37.50;27.00;;;;;-1.69;90.87;101206.35;111324;241;161679;-55
2024/03/20 00:37:23;;;;;;;;;38.50;26.25;;;;;-1.70;90.78;101208.00;111421;255;39108;-55
2024/03/20 00:40:06;;;;;;;;;50.75;34.75;;;;;-1.72;90.81;101205.45;111333;242;162060;-55
2024/03/20 00:42:50;;;;;;;;;39.00;29.00;;;;;-1.72;90.88;101205.97;111468;255;39070;-51
2024/03/20 00:45:31;;;;;;;;;40.00;30.25;;;;;-1.70;90.97;101201.81;111309;241;161699;-51
2024/03/20 00:48:09;;;;;;;;;35.50;26.00;;;;;-1.71;90.88;101201.32;111430;255;39628;-53
2024/03/20 00:50:49;;;;;;;;;34.00;26.00;;;;;-1.73;90.99;101203.02;111354;240;166076;-53
2024/03/20 00:53:32;;;;;;;;;37.50;27.00;;;;;-1.78;91.09;101203.83;111456;255;39779;-51
2024/03/20 00:56:08;;;;;;;;;31.50;23.50;;;;;-1.78;91.16;101203.48;111460;255;39146;-51
2024/03/20 00:58:55;;;;;;;;;34.33;26.00;;;;;-1.76;91.02;101197.90;111366;240;161952;-51
2024/03/20 01:01:35;;;;;;;;;34.50;25.00;;;;;-1.77;91.08;101199.59;111497;255;39422;-50
2024/03/20 01:04:15;;;;;;;;;33.00;24.00;;;;;-1.79;91.10;101199.48;111371;241;161646;-53
2024/03/20 01:06:55;;;;;;;;;26.67;20.67;;;;;-1.79;90.93;101191.67;111513;254;39972;-53
2024/03/20 01:09:33;;;;;;;;;34.67;25.00;;;;;-1.80;90.84;101193.88;111427;241;160905;-55
2024/03/20 01:12:09;;;;;;;;;39.00;28.00;;;;;-1.81;90.94;101191.14;111515;254;40726;-55
2024/03/20 01:14:49;;;;;;;;;36.00;27.00;;;;;-1.86;91.05;101192.48;111421;241;161137;-51
2024/03/20 01:17:27;;;;;;;;;23.33;19.00;;;;;-1.88;90.98;101195.48;111465;255;39919;-52
2024/03/20 01:20:05;;;;;;;;;37.00;27.00;;;;;-1.92;91.03;101200.47;111400;255;40441;-51
2024/03/20 01:22:41;;;;;;;;;36.00;26.50;;;;;-1.98;91.08;101205.90;111335;241;161890;-52
2024/03/20 01:25:19;;;;;;;;;37.50;27.75;;;;;-2.04;91.10;101206.10;111437;254;39627;-51
2024/03/20 01:27:55;;;;;;;;;34.00;26.00;;;;;-2.06;91.07;101204.65;111352;241;162840;-51
2024/03/20 01:30:32;;;;;;;;;34.25;24.75;;;;;-2.09;91.17;101206.40;111456;255;40896;-53
2024/03/20 01:33:11;;;;;;;;;30.00;22.67;;;;;-2.12;91.31;101205.00;111356;241;161946;-52
2024/03/20 01:35:53;;;;;;;;;39.75;25.00;;;;;-2.18;91.35;101208.88;111423;254;39735;-53
2024/03/20 01:38:32;;;;;;;;;33.00;26.00;;;;;-2.25;91.46;101208.21;111469;254;39293;-52
2024/03/20 01:41:12;;;;;;;;;32.00;24.75;;;;;-2.28;91.49;101205.58;111384;241;161423;-52
2024/03/20 01:43:56;;;;;;;;;30.00;24.00;;;;;-2.30;91.56;101203.94;111507;256;39866;-54
2024/03/20 01:46:35;;;;;;;;;32.00;24.00;;;;;-2.25;91.55;101208.56;111398;241;161873;-55
2024/03/20 01:49:14;;;;;;;;;29.00;21.33;;;;;-2.26;91.71;101206.01;111552;254;39832;-54
2024/03/20 01:52:02;;;;;;;;;29.00;23.00;;;;;-2.28;91.71;101205.20;111410;241;161730;-55
2024/03/20 01:54:43;;;;;;;;;30.25;23.25;;;;;-2.29;91.76;101204.95;111530;255;39423;-55
2024/03/20 01:57:24;;;;;;;;;37.00;25.00;;;;;-2.31;91.74;101202.80;111393;241;163157;-54
2024/03/20 02:00:03;;;;;;;;;36.75;26.00;;;;;-2.32;91.72;101204.80;111477;254;39800;-54
2024/03/20 02:02:50;;;;;;;;;32.00;21.00;;;;;-2.33;91.84;101205.57;111515;254;40040;-53
2024/03/20 02:05:28;;;;;;;;;30.50;23.00;;;;;-2.35;91.92;101202.83;111503;254;40602;-54
2024/03/20 02:08:06;;;;;;;;;33.00;25.67;;;;;-2.36;91.94;101199.87;111508;254;40895;-52
2024/03/20 02:10:46;;;;;;;;;33.50;25.00;;;;;-2.37;92.07;101200.47;111421;241;161825;-52
2024/03/20 02:13:22;;;;;;;;;32.50;24.00;;;;;-2.37;92.03;101201.50;111465;255;39660;-51
2024/03/20 02:16:05;;;;;;;;;37.00;27.00;;;;;-2.39;92.13;101204.27;111319;243;161645;-51
2024/03/20 02:18:52;;;;;;;;;34.00;24.00;;;;;-2.37;92.17;101202.92;111450;254;39360;-51
2024/03/20 02:21:36;;;;;;;;;31.00;23.00;;;;;-2.37;92.07;101203.48;111377;241;162436;-51
2024/03/20 02:24:24;;;;;;;;;35.00;25.00;;;;;-2.41;92.08;101207.55;111544;255;39035;-53
2024/03/20 02:27:03;;;;;;;;;31.00;24.00;;;;;-2.43;92.11;101203.81;111362;241;161171;-53
2024/03/20 02:29:38;;;;;;;;;20.00;16.00;;;;;-2.49;92.17;101201.31;111514;254;40143;-51
2024/03/20 02:32:29;;;;;;;;;30.25;22.50;;;;;-2.51;92.19;101205.30;111521;254;41002;-51
2024/03/20 02:35:10;;;;;;;;;28.00;21.00;;;;;-2.53;92.14;101208.80;111145;243;162183;-52
2024/03/20 02:37:47;;;;;;;;;39.25;26.75;;;;;-2.54;92.18;101208.69;111500;255;39534;-55
2024/03/20 02:40:24;;;;;;;;;22.50;18.00;;;;;-2.55;92.13;101209.06;111337;241;161977;-55
2024/03/20 02:43:07;;;;;;;;;32.67;25.00;;;;;-2.56;92.23;101209.98;111488;255;40274;-53
2024/03/20 02:45:49;;;;;;;;;30.00;24.00;;;;;-2.52;92.07;101210.83;111334;241;162144;-53
2024/03/20 02:48:25;;;;;;;;;37.33;26.33;;;;;-2.48;92.20;101206.91;111468;255;39839;-51
2024/03/20 02:50:58;;;;;;;;;32.50;23.00;;;;;-2.47;92.10;101210.05;111321;241;161743;-50
2024/03/20 02:53:39;;;;;;;;;25.75;21.00;;;;;-2.49;92.19;101209.29;111457;255;40784;-54
2024/03/20 02:56:15;;;;;;;;;26.25;18.75;;;;;-2.49;92.28;101203.11;111473;255;41049;-54
2024/03/20 02:58:57;;;;;;;;;31.00;24.00;;;;;-2.51;92.29;101207.62;111368;240;161876;-51
2024/03/20 03:01:39;;;;;;;;;25.50;19.00;;;;;-2.57;92.48;101208.98;111457;255;39528;-51
2024/03/20 03:04:22;;;;;;;;;30.00;23.00;;;;;-2.61;92.61;101205.91;111341;240;162098;-54
2024/03/20 03:07:01;;;;;;;;;29.00;22.00;;;;;-2.65;92.58;101205.04;111466;255;40600;-55
2024/03/20 03:09:43;;;;;;;;;30.00;20.00;;;;;-2.69;92.46;101203.53;111360;241;161972;-54
2024/03/20 03:12:25;;;;;;;;;22.50;16.00;;;;;-2.73;92.49;101198.48;111430;255;39923;-54
2024/03/20 03:15:03;;;;;;;;;25.33;18.33;;;;;-2.79;92.43;101195.12;111333;241;161309;-53
2024/03/20 03:17:37;;;;;;;;;25.00;20.00;;;;;-2.85;92.54;101196.33;111543;255;39405;-54
2024/03/20 03:20:14;;;;;;;;;32.00;20.00;;;;;-2.85;92.47;101196.15;111473;255;39716;-55
2024/03/20 03:22:50;;;;;;;;;17.00;14.00;;;;;-2.88;92.48;101194.03;111443;241;161113;-53
2024/03/20 03:25:27;;;;;;;;;24.67;20.33;;;;;-2.92;92.50;101191.80;111420;255;40670;-52
2024/03/20 03:28:05;;;;;;;;;22.00;17.00;;;;;-2.96;92.60;101194.11;111165;243;161922;-54
2024/03/20 03:30:44;;;;;;;;;30.75;21.50;;;;;-3.00;92.72;101195.88;111523;255;41163;-54
2024/03/20 03:33:28;;;;;;;;;31.00;22.00;;;;;-3.00;92.78;101198.71;111190;242;162162;-54
2024/03/20 03:36:12;;;;;;;;;27.00;20.00;;;;;-3.04;92.80;101200.87;111359;255;39131;-51
2024/03/20 03:38:57;;;;;;;;;31.00;23.00;;;;;-3.07;92.89;101196.64;111359;255;162047;-51
2024/03/20 03:41:36;;;;;;;;;24.25;16.50;;;;;-3.06;92.91;101198.38;111456;254;39954;-51
2024/03/20 03:44:18;;;;;;;;;32.00;24.00;;;;;-3.06;92.97;101199.93;111463;254;40633;-54
2024/03/20 03:46:58;;;;;;;;;27.00;20.00;;;;;-3.05;93.03;101198.49;111466;241;161864;-55
2024/03/20 03:49:37;;;;;;;;;31.25;22.00;;;;;-3.06;93.05;101195.75;111500;255;39362;-54
2024/03/20 03:52:11;;;;;;;;;20.00;15.00;;;;;-3.08;93.09;101199.86;111410;241;161865;-54
2024/03/20 03:54:47;;;;;;;;;32.25;22.25;;;;;-3.08;93.12;101203.73;111510;255;39333;-50
2024/03/20 03:57:27;;;;;;;;;30.00;21.67;;;;;-3.09;93.15;101202.94;111373;241;162276;-53
2024/03/20 04:00:07;;;;;;;;;26.75;22.00;;;;;-3.10;93.18;101198.41;111435;255;39737;-51
2024/03/20 04:02:48;;;;;;;;;24.50;19.00;;;;;-3.07;93.11;101197.37;111464;256;39891;-50
2024/03/20 04:05:26;;;;;;;;;31.00;22.00;;;;;-3.05;93.19;101202.04;111252;256;40653;-51
2024/03/20 04:08:01;;;;;;;;;33.00;23.00;;;;;-3.00;93.18;101201.92;111485;256;40801;-54
2024/03/20 04:10:37;;;;;;;;;29.00;22.75;;;;;-2.98;93.17;101201.65;111451;241;161880;-55
2024/03/20 04:13:12;;;;;;;;;33.67;23.33;;;;;-2.97;93.07;101200.91;111518;255;39043;-51
2024/03/20 04:15:48;;;;;;;;;29.00;18.00;;;;;-2.99;93.11;101197.28;111080;243;160941;-51
2024/03/20 04:18:28;;;;;;;;;32.00;24.33;;;;;-3.01;93.10;101199.46;111388;256;39318;-51
2024/03/20 04:21:07;;;;;;;;;27.00;21.00;;;;;-3.03;93.09;101199.27;111311;243;162061;-51
2024/03/20 04:23:43;;;;;;;;;19.00;15.00;;;;;-3.07;93.06;101199.66;111489;256;40790;-51
2024/03/20 04:26:17;;;;;;;;;20.00;16.00;;;;;-3.13;93.06;101203.33;111496;256;39456;-50
2024/03/20 04:28:53;;;;;;;;;27.00;20.00;;;;;-3.14;93.05;101202.16;111347;243;162094;-54
2024/03/20 04:31:36;;;;;;;;;29.00;21.67;;;;;-3.14;93.10;101206.39;111520;256;39913;-55
2024/03/20 04:34:15;;;;;;;;;26.33;20.33;;;;;-3.16;93.11;101206.16;111338;243;161941;-52
2024/03/20 04:36:56;;;;;;;;;27.00;20.00;;;;;-3.17;93.16;101206.72;111483;256;39875;-51
2024/03/20 04:39:33;;;;;;;;;29.00;22.00;;;;;-3.19;93.26;101207.17;111382;243;162165;-54
2024/03/20 04:42:08;;;;;;;;;25.00;21.00;;;;;-3.20;93.22;101209.34;111477;256;41023;-54
2024/03/20 04:44:45;;;;;;;;;29.50;23.00;;;;;-3.21;93.26;101210.63;111542;256;40594;-50
2024/03/20 04:47:19;;;;;;;;;25.00;20.00;;;;;-3.21;93.28;101206.61;111229;256;40605;-50
2024/03/20 04:49:52;;;;;;;;;38.00;25.00;;;;;-3.20;93.28;101206.01;111439;256;39479;-55
2024/03/20 04:52:26;;;;;;;;;30.00;20.00;;;;;-3.19;93.36;101205.92;111327;256;162015;-52
2024/03/20 04:55:00;;;;;;;;;28.00;21.00;;;;;-3.16;93.36;101207.02;111382;256;39944;-53
2024/03/20 04:57:37;;;;;;;;;35.00;25.00;;;;;-3.10;93.43;101209.86;111325;243;162277;-52
2024/03/20 05:00:15;;;;;;;;;30.00;22.00;;;;;-3.05;93.37;101206.39;111390;256;39438;-51
2024/03/20 05:02:51;;;;;;;;;25.00;18.00;;;;;-3.01;93.48;101205.32;111451;256;40059;-52
2024/03/20 05:05:28;;;;;;;;;31.00;23.00;;;;;-2.92;93.53;101207.84;111175;256;39228;-53
2024/03/20 05:08:04;;;;;;;;;30.00;22.50;;;;;-2.87;93.57;101209.51;111481;256;40874;-54
2024/03/20 05:10:42;;;;;;;;;23.00;17.33;;;;;-2.84;93.78;101214.06;111409;243;161703;-55
2024/03/20 05:13:26;;;;;;;;;29.00;21.00;;;;;-2.76;93.83;101215.20;111478;256;39369;-54
2024/03/20 05:16:10;;;;;;;;;30.00;23.00;;;;;-2.59;93.79;101216.56;111377;243;163176;-54
2024/03/20 05:18:52;;;;;;;;;24.00;17.33;;;;;-2.53;93.88;101213.73;111513;256;39827;-50
2024/03/20 05:21:32;;;;;;;;;33.00;24.00;;;;;-2.41;93.82;101213.20;111380;243;162064;-50
2024/03/20 05:24:09;;;;;;;;;35.00;23.33;;;;;-2.32;94.00;101215.54;111463;256;40558;-51
2024/03/20 05:26:49;;;;;;;;;41.50;28.50;;;;;-2.21;94.13;101215.55;111464;256;39750;-51
2024/03/20 05:29:30;;;;;;;;;34.00;25.33;;;;;-2.07;94.23;101222.17;111210;256;40544;-52
2024/03/20 05:32:10;;;;;;;;;26.67;19.67;;;;;-1.88;94.33;101221.02;111427;256;39326;-52
2024/03/20 05:34:46;;;;;;;;;35.67;26.00;;;;;-1.63;94.20;101219.21;111182;243;161734;-51
2024/03/20 05:37:23;;;;;;;;;32.00;22.75;;;;;-1.47;94.33;101217.52;111227;256;39112;-52
2024/03/20 05:39:59;;;;;;;;;36.33;27.00;;;;;-1.33;94.14;101219.33;111277;243;161876;-51
2024/03/20 05:42:36;;;;;;;;;31.00;23.50;;;;;-1.25;93.96;101222.87;111200;256;42425;-50
2024/03/20 05:45:11;;;;;;;;;34.50;26.00;;;;;-1.09;93.96;101222.77;111303;243;161434;-51
2024/03/20 05:47:51;;;;;;;;;31.50;23.75;;;;;-0.91;94.11;101224.80;111449;256;39911;-54
2024/03/20 05:50:31;;;;;;;;;30.00;24.00;;;;;-0.78;94.37;101226.98;111459;256;40095;-54
2024/03/20 05:53:06;;;;;;;;;33.50;23.00;;;;;-0.67;94.46;101230.86;111368;243;161761;-51
2024/03/20 05:55:47;;;;;;;;;38.00;27.67;;;;;-0.62;94.49;101228.57;111486;256;39786;-51
2024/03/20 05:58:25;;;;;;;;;33.75;24.75;;;;;-0.53;94.54;101233.00;111363;243;162260;-53
2024/03/20 06:01:10;;;;;;;;;37.00;29.00;;;;;-0.47;94.42;101230.96;111416;256;39516;-53
2024/03/20 06:03:50;;;;;;;;;39.00;28.00;;;;;-0.38;94.53;101233.56;111384;243;161716;-54
2024/03/20 06:06:27;;;;;;;;;34.50;25.00;;;;;-0.29;94.56;101240.09;111371;256;40983;-55
2024/03/20 06:09:13;;;;;;;;;38.50;27.00;;;;;-0.23;94.80;101241.42;111360;243;162767;-55
2024/03/20 06:11:57;;;;;;;;;43.00;30.00;;;;;-0.16;94.75;101243.81;111445;256;40096;-55
2024/03/20 06:14:37;;;;;;;;;42.50;32.00;;;;;-0.06;94.83;101250.05;111382;256;40972;-55
2024/03/20 06:17:24;;;;;;;;;40.25;28.00;;;;;0.05;94.83;101248.92;111319;243;160870;-55
2024/03/20 06:19:58;;;;;;;;;39.67;28.33;;;;;0.15;94.94;101251.98;111441;256;39620;-51
2024/03/20 06:22:34;;;;;;;;;43.00;28.67;;;;;0.24;95.07;101252.99;111289;243;160815;-53
2024/03/20 06:25:12;;;;;;;;;28.67;22.67;;;;;0.29;94.97;101248.90;111383;256;39065;-53
2024/03/20 06:27:53;;;;;;;;;31.25;22.50;;;;;0.39;94.97;101249.27;111308;243;162890;-54
2024/03/20 06:30:35;;;;;;;;;43.00;27.00;;;;;0.48;95.04;101250.06;111351;256;40729;-55
2024/03/20 06:33:20;;;;;;;;;35.00;25.00;;;;;0.58;95.00;101254.20;111359;243;161796;-52
2024/03/20 06:35:58;;;;;;;;;34.00;24.00;;;;;0.69;95.22;101261.47;111346;256;38936;-51
2024/03/20 06:38:35;;;;;;;;;31.75;24.00;;;;;0.75;95.14;101259.39;111471;256;40519;-51
2024/03/20 06:41:09;;;;;;;;;34.25;25.00;;;;;0.77;95.17;101263.67;111279;243;161726;-51
2024/03/20 06:43:52;;;;;;;;;34.00;25.00;;;;;0.88;95.25;101263.66;111471;256;39890;-55
2024/03/20 06:46:30;;;;;;;;;32.50;24.00;;;;;0.95;95.28;101262.04;111340;243;162821;-55
2024/03/20 06:49:09;;;;;;;;;31.00;24.00;;;;;1.13;95.28;101257.77;111446;256;39640;-53
2024/03/20 06:51:49;;;;;;;;;31.00;21.50;;;;;1.37;95.02;101261.70;111318;243;161376;-54
2024/03/20 06:54:27;;;;;;;;;25.75;20.25;;;;;1.53;94.94;101265.48;111494;256;39245;-54
2024/03/20 06:57:08;;;;;;;;;31.00;22.00;;;;;1.63;94.90;101265.85;111305;243;161610;-52
2024/03/20 06:59:44;;;;;;;;;30.25;20.00;;;;;1.70;94.99;101265.73;111440;256;39412;-51
2024/03/20 07:02:24;;;;;;;;;30.00;22.00;;;;;1.76;95.04;101270.77;111461;256;39850;-51
2024/03/20 07:05:03;;;;;;;;;30.75;23.50;;;;;1.82;94.96;101266.61;111322;243;161517;-54
2024/03/20 07:07:47;;;;;;;;;25.00;20.00;;;;;1.86;94.88;101266.83;111482;256;39618;-52
2024/03/20 07:10:27;;;;;;;;;23.25;17.00;;;;;1.96;94.72;101267.54;111313;243;161682;-52
2024/03/20 07:13:06;;;;;;;;;22.67;16.00;;;;;1.99;94.80;101272.42;111441;256;40665;-54
2024/03/20 07:15:48;;;;;;;;;20.00;14.00;;;;;2.05;94.68;101273.25;111333;256;161629;-54
2024/03/20 07:18:27;;;;;;;;;13.00;9.67;;;;;2.11;94.61;101270.42;111436;256;39091;-55
2024/03/20 07:21:04;;;;;;;;;21.50;13.50;;;;;2.23;94.47;101271.66;111357;243;162197;-54
2024/03/20 07:23:46;;;;;;;;;18.33;12.00;;;;;2.34;94.15;101272.46;111436;256;39526;-51
2024/03/20 07:26:28;;;;;;;;;20.00;14.00;;;;;2.41;93.89;101274.40;111455;256;40900;-51
2024/03/20 07:29:14;;;;;;;;;18.00;10.00;;;;;2.49;93.75;101280.05;111369;243;160886;-51
2024/03/20 07:31:53;;;;;;;;;15.75;10.25;;;;;2.49;93.88;101269.54;111457;256;39583;-50
2024/03/20 07:34:31;;;;;;;;;16.00;12.00;;;;;2.53;93.72;101267.41;111282;243;161331;-52
2024/03/20 07:37:08;;;;;;;;;14.75;10.00;;;;;2.60;93.29;101268.27;111192;256;38944;-53
2024/03/20 07:39:46;;;;;;;;;24.75;15.00;;;;;2.67;93.40;101268.09;111354;243;161494;-55
2024/03/20 07:42:31;;;;;;;;;20.25;14.00;;;;;2.72;93.26;101264.02;111364;256;39603;-53
2024/03/20 07:45:09;;;;;;;;;16.33;12.00;;;;;2.84;93.04;101251.69;111294;243;160772;-53
2024/03/20 07:47:48;;;;;;;;;20.00;14.25;;;;;2.93;92.91;101255.88;111423;256;39214;-54
2024/03/20 07:50:30;;;;;;;;;16.00;11.00;;;;;3.02;92.52;101249.59;111236;256;39898;-54
2024/03/20 07:53:08;;;;;;;;;12.50;10.00;;;;;3.06;92.37;101251.91;111354;243;160968;-56
2024/03/20 07:55:44;;;;;;;;;19.50;14.00;;;;;3.02;92.28;101250.79;111421;256;39867;-56
2024/03/20 07:58:23;;;;;;;;;17.33;12.33;;;;;2.88;92.24;101251.21;111315;243;161559;-53
2024/03/20 08:01:02;;;;;;;;;14.00;10.00;;;;;2.95;92.06;101246.01;111389;256;41864;-53
2024/03/20 08:03:41;;;;;;;;;18.00;12.50;;;;;2.98;92.14;101244.14;111290;243;161514;-56
2024/03/20 08:06:19;;;;;;;;;22.00;13.00;;;;;3.08;92.34;101252.83;110658;256;39725;-57
2024/03/20 08:08:53;;;;;;;;;19.25;14.00;;;;;3.12;92.45;101253.20;111441;256;40339;-53
2024/03/20 08:11:34;;;;;;;;;13.50;11.00;;;;;3.16;92.02;101254.32;111218;256;39481;-52
2024/03/20 08:14:13;;;;;;;;;18.00;12.75;;;;;3.05;91.69;101254.82;111474;256;41059;-56
2024/03/20 08:16:53;;;;;;;;;21.00;16.00;;;;;3.14;91.48;101255.30;111276;243;160666;-56
2024/03/20 08:19:37;;;;;;;;;17.00;12.75;;;;;3.20;91.46;101254.31;111500;256;41361;-51
2024/03/20 08:22:16;;;;;;;;;15.25;13.00;;;;;3.24;91.31;101251.67;111321;242;160554;-53
2024/03/20 08:24:55;;;;;;;;;23.00;17.00;;;;;3.32;91.49;101243.38;111434;256;39381;-54
2024/03/20 08:27:36;;;;;;;;;15.00;11.67;;;;;3.39;91.57;101247.27;111396;243;161832;-54
2024/03/20 08:30:14;;;;;;;;;16.00;12.00;;;;;3.47;91.59;101248.09;111423;256;40933;-54
2024/03/20 08:32:50;;;;;;;;;22.50;17.50;;;;;3.64;91.41;101248.44;111459;255;39769;-54
2024/03/20 08:35:26;;;;;;;;;17.00;13.50;;;;;3.87;90.74;101251.20;111235;243;40949;-53
2024/03/20 08:38:06;;;;;;;;;20.00;15.00;;;;;4.06;90.68;101248.54;111526;256;39600;-51
2024/03/20 08:40:40;;;;;;;;;25.50;18.50;;;;;4.00;90.73;101250.29;111339;243;160650;-51
2024/03/20 08:43:23;;;;;;;;;17.00;12.00;;;;;4.07;90.83;101257.33;111505;256;39676;-56
2024/03/20 08:46:08;;;;;;;;;23.50;16.50;;;;;4.09;90.43;101263.20;111284;243;160878;-56
2024/03/20 08:48:44;;;;;;;;;36.00;25.00;;;;;4.11;90.45;101261.48;111471;256;40792;-53
2024/03/20 08:51:18;;;;;;;;;12.00;9.00;;;;;4.13;90.55;101265.02;111285;243;161009;-53
2024/03/20 08:53:59;;;;;;;;;12.00;9.00;;;;;4.13;90.34;101264.85;111363;256;39940;-53
2024/03/20 08:56:39;;;;;;;;;17.33;12.00;;;;;4.19;90.24;101264.55;111402;256;40669;-53
2024/03/20 08:59:18;;;;;;;;;13.25;10.25;;;;;4.24;90.03;101266.99;111322;243;160159;-53
2024/03/20 09:01:54;;;;;;;;;19.00;14.67;;;;;4.38;89.91;101269.38;111454;256;39484;-53
2024/03/20 09:04:36;;;;;;;;;13.00;10.00;;;;;4.39;89.63;101264.44;111452;243;160600;-56
2024/03/20 09:07:13;;;;;;;;;18.00;14.00;;;;;4.69;89.42;101263.09;111539;256;40021;-56
2024/03/20 09:09:50;;;;;;;;;18.00;14.00;;;;;4.86;89.29;101263.79;111352;243;160635;-52
2024/03/20 09:12:30;;;;;;;;;22.75;16.50;;;;;5.06;88.86;101266.85;111504;256;39410;-54
2024/03/20 09:15:10;;;;;;;;;17.50;12.00;;;;;5.19;88.29;101258.20;111352;244;160868;-53
2024/03/20 09:17:48;;;;;;;;;18.00;11.75;;;;;5.13;88.15;101257.19;111441;256;38946;-52
2024/03/20 09:20:26;;;;;;;;;20.00;14.00;;;;;5.01;88.14;101250.95;111442;256;40575;-59
2024/03/20 09:23:04;;;;;;;;;17.00;12.67;;;;;5.13;87.69;101249.96;111446;243;161562;-53
2024/03/20 09:25:49;;;;;;;;;27.00;20.00;;;;;5.14;87.51;101250.81;111407;256;39908;-52
2024/03/20 09:28:25;;;;;;;;;24.75;17.00;;;;;5.23;87.49;101258.55;111333;243;160967;-54
2024/03/20 09:31:01;;;;;;;;;19.00;14.00;;;;;5.27;87.34;101260.35;111449;256;39584;-52
2024/03/20 09:33:42;;;;;;;;;16.00;11.67;;;;;5.32;87.34;101262.20;111352;243;161317;-54
2024/03/20 09:36:24;;;;;;;;;17.50;14.00;;;;;5.40;87.18;101258.71;111411;256;40962;-54
2024/03/20 09:39:04;;;;;;;;;25.50;18.75;;;;;5.54;87.14;101260.31;111327;256;161766;-52
2024/03/20 09:41:43;;;;;;;;;20.00;14.00;;;;;5.94;86.93;101262.59;111466;256;40221;-52
2024/03/20 09:44:18;;;;;;;;;24.25;18.00;;;;;6.17;86.63;101256.21;111439;256;39458;-56
2024/03/20 09:46:56;;;;;;;;;27.75;20.25;;;;;6.33;85.60;101247.86;111324;243;160906;-56
2024/03/20 09:49:39;;;;;;;;;29.00;21.00;;;;;6.41;84.69;101244.84;111513;256;39825;-54
2024/03/20 09:52:20;;;;;;;;;31.50;23.50;;;;;6.37;84.04;101247.35;111357;243;161924;-54
2024/03/20 09:54:56;;;;;;;;;37.00;26.00;;;;;6.76;84.28;101246.35;111485;256;39539;-53
2024/03/20 09:57:34;;;;;;;;;24.25;19.50;;;;;6.78;84.23;101246.94;111368;243;160784;-53
2024/03/20 10:00:14;;;;;;;;;27.75;21.00;;;;;7.00;84.01;101242.81;111406;256;39573;-52
2024/03/20 10:02:53;;;;;;;;;28.00;21.00;;;;;7.41;83.50;101242.02;111479;256;40997;-54
2024/03/20 10:05:40;;;;;;;;;35.00;23.50;;;;;7.68;83.56;101247.09;111201;256;41181;-53
2024/03/20 10:08:19;;;;;;;;;33.25;23.50;;;;;7.78;83.03;101246.34;111465;256;40345;-55
2024/03/20 10:10:57;;;;;;;;;32.67;24.33;;;;;7.65;82.42;101241.86;111299;243;161111;-55
2024/03/20 10:13:42;;;;;;;;;27.00;21.00;;;;;7.76;81.52;101239.51;111420;256;40003;-55
2024/03/20 10:16:20;;;;;;;;;29.75;22.75;;;;;7.97;81.55;101239.38;111302;243;161028;-55
2024/03/20 10:18:58;;;;;;;;;28.00;21.00;;;;;8.39;81.03;101234.62;111442;256;40316;-53
2024/03/20 10:21:44;;;;;;;;;34.67;25.67;;;;;8.36;80.32;101233.08;111360;243;161509;-52
2024/03/20 10:24:27;;;;;;;;;28.33;22.00;;;;;8.02;80.12;101239.06;111485;256;40056;-56
2024/03/20 10:27:14;;;;;;;;;32.00;23.00;;;;;7.75;79.98;101233.46;111155;246;161597;-56
2024/03/20 10:29:54;;;;;;;;;31.00;21.00;;;;;7.88;79.94;101230.23;111453;256;39215;-54
2024/03/20 10:32:31;;;;;;;;;32.00;23.00;;;;;8.07;78.59;101228.66;111475;256;39307;-54
2024/03/20 10:35:12;;;;;;;;;32.00;23.00;;;;;8.11;78.60;101221.79;111297;243;161012;-54
2024/03/20 10:37:49;;;;;;;;;32.00;23.67;;;;;8.39;78.51;101216.27;111460;256;40151;-56
2024/03/20 10:40:31;;;;;;;;;37.00;25.50;;;;;8.53;78.14;101212.98;111346;242;161088;-57
2024/03/20 10:43:15;;;;;;;;;34.25;25.75;;;;;8.61;78.10;101209.16;111464;256;40661;-53
2024/03/20 10:45:53;;;;;;;;;34.50;24.25;;;;;8.56;78.15;101206.81;111322;243;161621;-53
2024/03/20 10:48:31;;;;;;;;;39.00;26.33;;;;;8.74;78.08;101202.98;111463;256;39114;-55
2024/03/20 10:51:12;;;;;;;;;35.00;25.00;;;;;8.66;77.91;101202.95;111270;243;161358;-55
2024/03/20 10:53:54;;;;;;;;;34.25;26.00;;;;;8.66;77.64;101198.75;111448;256;39576;-56
2024/03/20 10:56:33;;;;;;;;;37.00;29.25;;;;;8.56;77.49;101195.11;111525;256;40730;-56
2024/03/20 10:59:16;;;;;;;;;37.33;26.67;;;;;8.43;76.99;101197.95;111409;243;161223;-56
2024/03/20 11:02:07;;;;;;;;;34.33;25.00;;;;;8.43;76.15;101195.08;111569;256;39837;-56
2024/03/20 11:04:44;;;;;;;;;33.00;25.00;;;;;8.53;75.71;101190.84;111356;243;161240;-54
2024/03/20 11:07:47;;;;;;;;;32.67;24.67;;;;;8.53;75.48;101190.55;111400;256;39741;-54
2024/03/20 11:10:26;;;;;;;;;30.25;23.00;;;;;8.42;75.83;101188.23;111297;243;161393;-53
2024/03/20 11:13:05;;;;;;;;;26.00;19.00;;;;;8.56;75.78;101185.98;111437;256;39322;-53
2024/03/20 11:15:48;;;;;;;;;36.67;26.67;;;;;8.78;75.34;101186.14;111285;243;162539;-53
2024/03/20 11:18:39;;;;;;;;;32.00;24.33;;;;;8.53;75.04;101189.56;111410;256;41192;-53
2024/03/20 11:21:21;;;;;;;;;32.50;23.50;;;;;8.50;75.00;101190.35;111301;243;161595;-53
2024/03/20 11:24:01;;;;;;;;;32.67;24.00;;;;;8.52;74.31;101188.34;111443;256;39767;-52
2024/03/20 11:26:41;;;;;;;;;30.50;22.50;;;;;8.34;73.81;101187.52;111445;255;41042;-52
2024/03/20 11:29:17;;;;;;;;;23.67;16.00;;;;;8.16;74.01;101184.71;111358;243;161028;-55
2024/03/20 11:31:56;;;;;;;;;32.00;24.00;;;;;8.04;74.46;101183.42;111561;256;40657;-55
2024/03/20 11:34:39;;;;;;;;;25.33;20.00;;;;;8.06;74.37;101178.15;111362;243;162394;-54
2024/03/20 11:37:19;;;;;;;;;30.00;22.00;;;;;7.97;74.66;101178.60;111496;256;39494;-54
2024/03/20 11:39:54;;;;;;;;;33.50;23.25;;;;;7.96;74.58;101175.25;111372;243;161260;-55
2024/03/20 11:42:35;;;;;;;;;34.50;24.00;;;;;7.89;74.59;101169.72;111481;256;41311;-60
2024/03/20 11:45:14;;;;;;;;;28.75;20.00;;;;;7.81;74.55;101164.29;111351;243;161238;-57
2024/03/20 11:47:51;;;;;;;;;27.67;20.67;;;;;7.75;74.21;101164.95;111485;256;40802;-56
2024/03/20 11:50:27;;;;;;;;;34.50;23.50;;;;;7.88;74.23;101159.19;111462;255;39035;-57
2024/03/20 11:53:05;;;;;;;;;33.00;24.00;;;;;7.81;74.19;101153.69;111366;243;161464;-51
2024/03/20 11:55:39;;;;;;;;;29.00;21.00;;;;;7.68;74.28;101152.63;111435;256;39623;-52
2024/03/20 11:58:19;;;;;;;;;21.50;18.25;;;;;7.66;74.08;101149.61;111337;243;161472;-53
2024/03/20 12:01:05;;;;;;;;;25.00;19.25;;;;;7.69;73.83;101146.05;111387;256;39557;-53
2024/03/20 12:03:40;;;;;;;;;20.75;16.50;;;;;7.77;73.88;101144.20;111361;256;160875;-56
2024/03/20 12:06:21;;;;;;;;;26.75;18.75;;;;;7.96;73.87;101143.86;111515;256;39339;-56